sensor_id;sensor_type;location;lat;lon;timestamp;temperature;humidity
70851;DHT22;58475;49.662;9.636;2022-09-29T00:01:22;6.26;94.11
70851;DHT22;58475;49.662;9.636;2022-09-29T00:03:48;6.30;93.83
70851;DHT22;58475;49.662;9.636;2022-09-29T00:06:16;6.30;93.75
70851;DHT22;58475;49.662;9.636;2022-09-29T00:08:42;6.32;93.81
70851;DHT22;58475;49.662;9.636;2022-09-29T00:11:10;6.32;93.80
70851;DHT22;58475;49.662;9.636;2022-09-29T00:13:36;6.37;93.35
70851;DHT22;58475;49.662;9.636;2022-09-29T00:16:02;6.33;93.64
70851;DHT22;58475;49.662;9.636;2022-09-29T00:18:29;6.38;93.85
70851;DHT22;58475;49.662;9.636;2022-09-29T00:21:03;6.26;93.70
70851;DHT22;58475;49.662;9.636;2022-09-29T00:23:31;6.48;93.03
70851;DHT22;58475;49.662;9.636;2022-09-29T00:26:07;6.43;93.53
70851;DHT22;58475;49.662;9.636;2022-09-29T00:28:35;6.43;93.25
70851;DHT22;58475;49.662;9.636;2022-09-29T00:31:02;6.32;93.23
70851;DHT22;58475;49.662;9.636;2022-09-29T00:33:29;6.34;93.02
70851;DHT22;58475;49.662;9.636;2022-09-29T00:35:59;6.40;93.64
70851;DHT22;58475;49.662;9.636;2022-09-29T00:38:26;6.34;93.12
70851;DHT22;58475;49.662;9.636;2022-09-29T00:40:52;6.34;93.17
70851;DHT22;58475;49.662;9.636;2022-09-29T00:43:21;6.23;93.64
70851;DHT22;58475;49.662;9.636;2022-09-29T00:45:48;6.30;93.46
70851;DHT22;58475;49.662;9.636;2022-09-29T00:48:17;6.23;93.69
70851;DHT22;58475;49.662;9.636;2022-09-29T00:50:49;6.16;94.29
70851;DHT22;58475;49.662;9.636;2022-09-29T00:53:17;6.14;93.54
70851;DHT22;58475;49.662;9.636;2022-09-29T00:55:49;6.20;93.96
70851;DHT22;58475;49.662;9.636;2022-09-29T01:00:54;6.22;94.06
70851;DHT22;58475;49.662;9.636;2022-09-29T01:03:21;6.29;93.93
70851;DHT22;58475;49.662;9.636;2022-09-29T01:05:57;6.26;94.01
70851;DHT22;58475;49.662;9.636;2022-09-29T01:08:33;6.24;94.19
70851;DHT22;58475;49.662;9.636;2022-09-29T01:11:03;6.16;94.29
70851;DHT22;58475;49.662;9.636;2022-09-29T01:13:30;6.30;94.32
70851;DHT22;58475;49.662;9.636;2022-09-29T01:15:57;6.27;93.92
70851;DHT22;58475;49.662;9.636;2022-09-29T01:18:23;6.23;94.15
70851;DHT22;58475;49.662;9.636;2022-09-29T01:21:10;6.30;94.39
70851;DHT22;58475;49.662;9.636;2022-09-29T01:29:57;6.19;94.44
70851;DHT22;58475;49.662;9.636;2022-09-29T01:32:10;6.20;94.66
70851;DHT22;58475;49.662;9.636;2022-09-29T01:35:12;6.23;94.24
70851;DHT22;58475;49.662;9.636;2022-09-29T01:43:18;6.17;94.48
70851;DHT22;58475;49.662;9.636;2022-09-29T01:48:47;6.22;94.44
70851;DHT22;58475;49.662;9.636;2022-09-29T01:51:20;6.23;94.03
70851;DHT22;58475;49.662;9.636;2022-09-29T01:54:03;6.19;94.27
70851;DHT22;58475;49.662;9.636;2022-09-29T01:56:40;6.20;94.08
70851;DHT22;58475;49.662;9.636;2022-09-29T01:59:16;6.20;94.48
70851;DHT22;58475;49.662;9.636;2022-09-29T02:01:43;6.10;94.35
70851;DHT22;58475;49.662;9.636;2022-09-29T02:04:28;6.13;94.24
70851;DHT22;58475;49.662;9.636;2022-09-29T02:07:09;6.02;94.18
70851;DHT22;58475;49.662;9.636;2022-09-29T02:09:39;5.95;94.14
70851;DHT22;58475;49.662;9.636;2022-09-29T02:12:09;5.79;94.32
70851;DHT22;58475;49.662;9.636;2022-09-29T02:14:42;5.72;94.48
70851;DHT22;58475;49.662;9.636;2022-09-29T02:17:17;5.69;94.36
70851;DHT22;58475;49.662;9.636;2022-09-29T02:19:45;5.62;94.31
70851;DHT22;58475;49.662;9.636;2022-09-29T02:22:12;5.58;94.03
70851;DHT22;58475;49.662;9.636;2022-09-29T02:24:37;5.59;93.90
70851;DHT22;58475;49.662;9.636;2022-09-29T02:27:03;5.54;94.15
70851;DHT22;58475;49.662;9.636;2022-09-29T02:29:31;5.50;93.91
70851;DHT22;58475;49.662;9.636;2022-09-29T02:31:57;5.51;93.71
70851;DHT22;58475;49.662;9.636;2022-09-29T02:34:26;5.54;94.24
70851;DHT22;58475;49.662;9.636;2022-09-29T02:47:41;5.22;94.02
70851;DHT22;58475;49.662;9.636;2022-09-29T02:53:01;5.16;94.50
70851;DHT22;58475;49.662;9.636;2022-09-29T02:58:39;5.16;94.47
70851;DHT22;58475;49.662;9.636;2022-09-29T03:01:09;5.01;94.67
70851;DHT22;58475;49.662;9.636;2022-09-29T03:03:35;4.96;94.06
70851;DHT22;58475;49.662;9.636;2022-09-29T03:06:00;4.93;93.87
70851;DHT22;58475;49.662;9.636;2022-09-29T03:08:26;4.99;94.12
70851;DHT22;58475;49.662;9.636;2022-09-29T03:10:51;4.85;94.76
70851;DHT22;58475;49.662;9.636;2022-09-29T03:13:17;4.76;95.40
70851;DHT22;58475;49.662;9.636;2022-09-29T03:15:42;4.82;94.86
70851;DHT22;58475;49.662;9.636;2022-09-29T03:18:08;4.96;94.85
70851;DHT22;58475;49.662;9.636;2022-09-29T03:20:34;4.82;95.22
70851;DHT22;58475;49.662;9.636;2022-09-29T03:22:59;4.86;95.28
70851;DHT22;58475;49.662;9.636;2022-09-29T03:25:25;4.96;94.90
70851;DHT22;58475;49.662;9.636;2022-09-29T03:27:50;4.93;94.87
70851;DHT22;58475;49.662;9.636;2022-09-29T03:30:17;4.99;94.88
70851;DHT22;58475;49.662;9.636;2022-09-29T03:32:43;5.06;94.55
70851;DHT22;58475;49.662;9.636;2022-09-29T03:35:09;5.12;94.55
70851;DHT22;58475;49.662;9.636;2022-09-29T03:37:35;4.93;94.32
70851;DHT22;58475;49.662;9.636;2022-09-29T03:40:03;5.01;94.37
70851;DHT22;58475;49.662;9.636;2022-09-29T03:42:29;5.07;94.27
70851;DHT22;58475;49.662;9.636;2022-09-29T03:44:55;4.94;94.83
70851;DHT22;58475;49.662;9.636;2022-09-29T03:47:21;5.03;94.21
70851;DHT22;58475;49.662;9.636;2022-09-29T03:49:46;5.09;93.78
70851;DHT22;58475;49.662;9.636;2022-09-29T03:52:12;4.82;93.77
70851;DHT22;58475;49.662;9.636;2022-09-29T03:54:37;4.69;94.05
70851;DHT22;58475;49.662;9.636;2022-09-29T03:57:03;4.76;94.29
70851;DHT22;58475;49.662;9.636;2022-09-29T03:59:29;4.63;94.34
70851;DHT22;58475;49.662;9.636;2022-09-29T04:01:54;4.58;94.38
70851;DHT22;58475;49.662;9.636;2022-09-29T04:04:20;4.61;93.96
70851;DHT22;58475;49.662;9.636;2022-09-29T04:06:46;4.58;93.78
70851;DHT22;58475;49.662;9.636;2022-09-29T04:09:12;4.44;94.34
70851;DHT22;58475;49.662;9.636;2022-09-29T04:11:37;4.37;95.00
70851;DHT22;58475;49.662;9.636;2022-09-29T04:14:03;4.41;94.34
70851;DHT22;58475;49.662;9.636;2022-09-29T04:16:28;4.28;94.59
70851;DHT22;58475;49.662;9.636;2022-09-29T04:18:54;4.49;94.48
70851;DHT22;58475;49.662;9.636;2022-09-29T04:21:19;4.54;94.20
70851;DHT22;58475;49.662;9.636;2022-09-29T04:23:45;4.40;94.45
70851;DHT22;58475;49.662;9.636;2022-09-29T04:26:11;4.37;94.66
70851;DHT22;58475;49.662;9.636;2022-09-29T04:28:38;4.58;94.68
70851;DHT22;58475;49.662;9.636;2022-09-29T04:31:04;4.49;94.68
70851;DHT22;58475;49.662;9.636;2022-09-29T04:33:30;4.66;94.99
70851;DHT22;58475;49.662;9.636;2022-09-29T04:35:56;4.65;95.31
70851;DHT22;58475;49.662;9.636;2022-09-29T04:38:22;4.71;95.14
70851;DHT22;58475;49.662;9.636;2022-09-29T04:40:48;4.69;95.14
70851;DHT22;58475;49.662;9.636;2022-09-29T04:43:13;4.72;95.49
70851;DHT22;58475;49.662;9.636;2022-09-29T04:45:39;4.77;95.57
70851;DHT22;58475;49.662;9.636;2022-09-29T04:48:05;4.80;95.56
70851;DHT22;58475;49.662;9.636;2022-09-29T04:50:30;4.83;95.32
70851;DHT22;58475;49.662;9.636;2022-09-29T04:52:56;4.86;95.40
70851;DHT22;58475;49.662;9.636;2022-09-29T04:55:21;4.90;95.60
70851;DHT22;58475;49.662;9.636;2022-09-29T04:57:47;5.06;95.18
70851;DHT22;58475;49.662;9.636;2022-09-29T05:00:14;4.96;95.01
70851;DHT22;58475;49.662;9.636;2022-09-29T05:02:41;5.07;94.93
70851;DHT22;58475;49.662;9.636;2022-09-29T05:05:07;4.99;94.97
70851;DHT22;58475;49.662;9.636;2022-09-29T05:07:34;5.14;94.92
70851;DHT22;58475;49.662;9.636;2022-09-29T05:09:59;5.06;94.88
70851;DHT22;58475;49.662;9.636;2022-09-29T05:12:25;5.09;95.03
70851;DHT22;58475;49.662;9.636;2022-09-29T05:14:50;5.06;95.52
70851;DHT22;58475;49.662;9.636;2022-09-29T05:17:16;5.09;95.11
70851;DHT22;58475;49.662;9.636;2022-09-29T05:19:42;5.04;95.42
70851;DHT22;58475;49.662;9.636;2022-09-29T05:22:07;5.07;95.55
70851;DHT22;58475;49.662;9.636;2022-09-29T05:24:33;5.03;95.92
70851;DHT22;58475;49.662;9.636;2022-09-29T05:26:58;5.22;95.90
70851;DHT22;58475;49.662;9.636;2022-09-29T05:29:24;5.28;95.59
70851;DHT22;58475;49.662;9.636;2022-09-29T05:31:50;5.35;95.30
70851;DHT22;58475;49.662;9.636;2022-09-29T05:34:16;5.28;95.77
70851;DHT22;58475;49.662;9.636;2022-09-29T05:36:42;5.37;95.74
70851;DHT22;58475;49.662;9.636;2022-09-29T05:39:07;5.40;95.54
70851;DHT22;58475;49.662;9.636;2022-09-29T05:41:33;5.37;95.24
70851;DHT22;58475;49.662;9.636;2022-09-29T05:43:59;5.50;95.66
70851;DHT22;58475;49.662;9.636;2022-09-29T05:46:26;5.64;95.32
70851;DHT22;58475;49.662;9.636;2022-09-29T05:48:52;5.68;94.64
70851;DHT22;58475;49.662;9.636;2022-09-29T05:51:21;5.69;94.76
70851;DHT22;58475;49.662;9.636;2022-09-29T05:53:46;5.76;94.86
70851;DHT22;58475;49.662;9.636;2022-09-29T05:56:17;5.89;95.30
70851;DHT22;58475;49.662;9.636;2022-09-29T05:58:44;6.01;94.61
70851;DHT22;58475;49.662;9.636;2022-09-29T06:01:15;6.05;94.50
70851;DHT22;58475;49.662;9.636;2022-09-29T06:03:41;6.17;94.95
70851;DHT22;58475;49.662;9.636;2022-09-29T06:06:08;6.14;95.12
70851;DHT22;58475;49.662;9.636;2022-09-29T06:08:35;6.29;94.71
70851;DHT22;58475;49.662;9.636;2022-09-29T06:11:03;6.33;95.05
70851;DHT22;58475;49.662;9.636;2022-09-29T06:13:29;6.29;94.55
70851;DHT22;58475;49.662;9.636;2022-09-29T06:15:57;6.27;94.74
70851;DHT22;58475;49.662;9.636;2022-09-29T06:18:23;6.34;94.93
70851;DHT22;58475;49.662;9.636;2022-09-29T06:20:48;6.34;95.04
70851;DHT22;58475;49.662;9.636;2022-09-29T06:23:14;6.41;95.28
70851;DHT22;58475;49.662;9.636;2022-09-29T06:25:39;6.55;95.28
70851;DHT22;58475;49.662;9.636;2022-09-29T06:28:05;6.64;95.02
70851;DHT22;58475;49.662;9.636;2022-09-29T06:30:30;6.61;94.91
70851;DHT22;58475;49.662;9.636;2022-09-29T06:32:55;6.77;94.93
70851;DHT22;58475;49.662;9.636;2022-09-29T06:35:21;6.70;95.25
70851;DHT22;58475;49.662;9.636;2022-09-29T06:38:05;6.55;95.02
70851;DHT22;58475;49.662;9.636;2022-09-29T06:40:30;6.63;95.00
70851;DHT22;58475;49.662;9.636;2022-09-29T06:42:56;6.61;95.16
70851;DHT22;58475;49.662;9.636;2022-09-29T06:45:22;6.57;95.00
70851;DHT22;58475;49.662;9.636;2022-09-29T06:47:47;6.45;95.15
70851;DHT22;58475;49.662;9.636;2022-09-29T06:50:13;6.51;95.19
70851;DHT22;58475;49.662;9.636;2022-09-29T06:52:38;6.48;95.56
70851;DHT22;58475;49.662;9.636;2022-09-29T06:55:04;6.54;95.73
70851;DHT22;58475;49.662;9.636;2022-09-29T06:57:29;6.74;95.50
70851;DHT22;58475;49.662;9.636;2022-09-29T06:59:55;6.80;94.82
70851;DHT22;58475;49.662;9.636;2022-09-29T07:02:20;6.91;94.70
70851;DHT22;58475;49.662;9.636;2022-09-29T07:04:46;6.75;95.08
70851;DHT22;58475;49.662;9.636;2022-09-29T07:07:14;6.78;95.45
70851;DHT22;58475;49.662;9.636;2022-09-29T07:09:39;6.74;95.59
70851;DHT22;58475;49.662;9.636;2022-09-29T07:12:05;6.71;95.98
70851;DHT22;58475;49.662;9.636;2022-09-29T07:14:30;6.75;96.11
70851;DHT22;58475;49.662;9.636;2022-09-29T07:16:56;6.75;95.32
70851;DHT22;58475;49.662;9.636;2022-09-29T07:19:23;6.75;95.84
70851;DHT22;58475;49.662;9.636;2022-09-29T07:21:49;6.85;95.62
70851;DHT22;58475;49.662;9.636;2022-09-29T07:24:16;6.85;95.43
70851;DHT22;58475;49.662;9.636;2022-09-29T07:26:41;6.92;94.76
70851;DHT22;58475;49.662;9.636;2022-09-29T07:29:07;7.12;95.48
70851;DHT22;58475;49.662;9.636;2022-09-29T07:31:33;7.02;94.65
70851;DHT22;58475;49.662;9.636;2022-09-29T07:33:59;7.02;95.17
70851;DHT22;58475;49.662;9.636;2022-09-29T07:36:24;6.95;95.32
70851;DHT22;58475;49.662;9.636;2022-09-29T07:38:50;7.16;94.72
70851;DHT22;58475;49.662;9.636;2022-09-29T07:41:18;7.36;94.35
70851;DHT22;58475;49.662;9.636;2022-09-29T07:43:45;7.46;94.39
70851;DHT22;58475;49.662;9.636;2022-09-29T07:46:10;7.53;93.86
70851;DHT22;58475;49.662;9.636;2022-09-29T07:48:37;7.70;94.18
70851;DHT22;58475;49.662;9.636;2022-09-29T07:51:08;7.74;93.16
70851;DHT22;58475;49.662;9.636;2022-09-29T07:53:34;7.87;93.56
70851;DHT22;58475;49.662;9.636;2022-09-29T07:58:30;7.93;93.63
70851;DHT22;58475;49.662;9.636;2022-09-29T08:00:57;8.09;94.15
70851;DHT22;58475;49.662;9.636;2022-09-29T08:03:22;7.81;94.33
70851;DHT22;58475;49.662;9.636;2022-09-29T08:05:50;8.04;93.64
70851;DHT22;58475;49.662;9.636;2022-09-29T08:08:16;8.28;92.91
70851;DHT22;58475;49.662;9.636;2022-09-29T08:10:42;8.31;93.03
70851;DHT22;58475;49.662;9.636;2022-09-29T08:13:08;8.24;91.99
70851;DHT22;58475;49.662;9.636;2022-09-29T08:15:33;8.31;92.73
70851;DHT22;58475;49.662;9.636;2022-09-29T08:17:59;8.32;92.53
70851;DHT22;58475;49.662;9.636;2022-09-29T08:20:24;8.28;93.24
70851;DHT22;58475;49.662;9.636;2022-09-29T08:22:51;8.26;92.73
70851;DHT22;58475;49.662;9.636;2022-09-29T08:25:18;8.28;92.51
70851;DHT22;58475;49.662;9.636;2022-09-29T08:27:43;8.38;92.99
70851;DHT22;58475;49.662;9.636;2022-09-29T08:30:10;8.43;92.37
70851;DHT22;58475;49.662;9.636;2022-09-29T08:32:36;8.57;91.54
70851;DHT22;58475;49.662;9.636;2022-09-29T08:35:03;8.70;92.21
70851;DHT22;58475;49.662;9.636;2022-09-29T08:37:29;8.85;92.72
70851;DHT22;58475;49.662;9.636;2022-09-29T08:39:55;8.88;90.54
70851;DHT22;58475;49.662;9.636;2022-09-29T08:42:41;8.67;90.53
70851;DHT22;58475;49.662;9.636;2022-09-29T08:45:12;9.01;90.49
70851;DHT22;58475;49.662;9.636;2022-09-29T08:47:48;9.28;89.67
70851;DHT22;58475;49.662;9.636;2022-09-29T08:50:21;9.23;89.79
70851;DHT22;58475;49.662;9.636;2022-09-29T08:52:53;9.38;89.19
70851;DHT22;58475;49.662;9.636;2022-09-29T08:55:24;9.56;89.36
70851;DHT22;58475;49.662;9.636;2022-09-29T08:57:57;9.69;89.73
70851;DHT22;58475;49.662;9.636;2022-09-29T09:00:34;9.66;88.99
70851;DHT22;58475;49.662;9.636;2022-09-29T09:06:20;9.20;90.31
70851;DHT22;58475;49.662;9.636;2022-09-29T09:09:08;9.39;89.02
70851;DHT22;58475;49.662;9.636;2022-09-29T09:11:46;9.59;88.52
70851;DHT22;58475;49.662;9.636;2022-09-29T09:20:17;9.87;89.53
70851;DHT22;58475;49.662;9.636;2022-09-29T09:22:55;9.96;89.03
70851;DHT22;58475;49.662;9.636;2022-09-29T09:25:34;9.97;89.80
70851;DHT22;58475;49.662;9.636;2022-09-29T09:33:40;10.21;88.38
70851;DHT22;58475;49.662;9.636;2022-09-29T09:36:16;10.55;87.08
70851;DHT22;58475;49.662;9.636;2022-09-29T09:38:56;10.86;87.39
70851;DHT22;58475;49.662;9.636;2022-09-29T09:41:24;11.47;85.92
70851;DHT22;58475;49.662;9.636;2022-09-29T09:43:55;11.81;84.08
70851;DHT22;58475;49.662;9.636;2022-09-29T09:46:39;11.74;82.91
70851;DHT22;58475;49.662;9.636;2022-09-29T09:54:31;13.34;77.31
70851;DHT22;58475;49.662;9.636;2022-09-29T09:57:02;13.98;77.72
70851;DHT22;58475;49.662;9.636;2022-09-29T10:02:16;13.70;76.93
70851;DHT22;58475;49.662;9.636;2022-09-29T10:04:43;13.89;78.39
70851;DHT22;58475;49.662;9.636;2022-09-29T10:07:10;14.34;75.14
70851;DHT22;58475;49.662;9.636;2022-09-29T10:09:36;14.67;73.84
70851;DHT22;58475;49.662;9.636;2022-09-29T10:12:01;14.93;74.46
70851;DHT22;58475;49.662;9.636;2022-09-29T10:14:27;15.06;73.07
70851;DHT22;58475;49.662;9.636;2022-09-29T10:16:57;14.42;75.01
70851;DHT22;58475;49.662;9.636;2022-09-29T10:19:58;14.57;73.87
70851;DHT22;58475;49.662;9.636;2022-09-29T10:22:26;14.93;74.00
70851;DHT22;58475;49.662;9.636;2022-09-29T10:27:40;14.47;73.75
70851;DHT22;58475;49.662;9.636;2022-09-29T10:30:22;15.20;73.17
70851;DHT22;58475;49.662;9.636;2022-09-29T10:32:52;14.36;74.30
70851;DHT22;58475;49.662;9.636;2022-09-29T10:35:27;13.68;74.95
70851;DHT22;58475;49.662;9.636;2022-09-29T10:38:19;13.96;75.02
70851;DHT22;58475;49.662;9.636;2022-09-29T10:41:03;15.05;72.73
70851;DHT22;58475;49.662;9.636;2022-09-29T10:43:39;15.93;71.42
70851;DHT22;58475;49.662;9.636;2022-09-29T10:46:25;15.80;71.26
70851;DHT22;58475;49.662;9.636;2022-09-29T10:49:15;14.56;72.76
70851;DHT22;58475;49.662;9.636;2022-09-29T10:51:54;14.23;74.19
70851;DHT22;58475;49.662;9.636;2022-09-29T10:54:20;14.37;74.54
70851;DHT22;58475;49.662;9.636;2022-09-29T10:56:50;14.47;73.61
70851;DHT22;58475;49.662;9.636;2022-09-29T10:59:16;14.89;73.11
70851;DHT22;58475;49.662;9.636;2022-09-29T11:01:45;15.40;72.27
70851;DHT22;58475;49.662;9.636;2022-09-29T11:04:34;15.90;70.50
70851;DHT22;58475;49.662;9.636;2022-09-29T11:07:06;16.00;71.27
70851;DHT22;58475;49.662;9.636;2022-09-29T11:09:42;16.99;67.77
70851;DHT22;58475;49.662;9.636;2022-09-29T11:12:27;17.41;68.22
70851;DHT22;58475;49.662;9.636;2022-09-29T11:14:53;16.75;67.04
70851;DHT22;58475;49.662;9.636;2022-09-29T11:17:37;16.86;68.23
70851;DHT22;58475;49.662;9.636;2022-09-29T11:20:06;16.99;66.41
70851;DHT22;58475;49.662;9.636;2022-09-29T11:23:02;17.18;66.65
70851;DHT22;58475;49.662;9.636;2022-09-29T11:44:58;15.53;68.45
70851;DHT22;58475;49.662;9.636;2022-09-29T11:53:30;15.19;68.23
70851;DHT22;58475;49.662;9.636;2022-09-29T11:56:22;15.19;69.48
70851;DHT22;58475;49.662;9.636;2022-09-29T11:59:39;15.05;70.48
70851;DHT22;58475;49.662;9.636;2022-09-29T12:02:01;14.89;72.32
70851;DHT22;58475;49.662;9.636;2022-09-29T12:15:29;14.51;73.35
70851;DHT22;58475;49.662;9.636;2022-09-29T12:18:02;14.48;73.14
70851;DHT22;58475;49.662;9.636;2022-09-29T12:20:34;14.38;74.83
70851;DHT22;58475;49.662;9.636;2022-09-29T12:23:03;14.60;73.52
70851;DHT22;58475;49.662;9.636;2022-09-29T12:25:40;14.54;71.79
70851;DHT22;58475;49.662;9.636;2022-09-29T12:28:16;14.47;72.31
70851;DHT22;58475;49.662;9.636;2022-09-29T12:30:49;14.36;72.72
70851;DHT22;58475;49.662;9.636;2022-09-29T12:36:02;14.33;74.82
70851;DHT22;58475;49.662;9.636;2022-09-29T12:38:40;14.29;75.51
70851;DHT22;58475;49.662;9.636;2022-09-29T12:41:11;14.30;72.80
70851;DHT22;58475;49.662;9.636;2022-09-29T12:51:38;13.92;74.21
70851;DHT22;58475;49.662;9.636;2022-09-29T12:57:10;13.11;73.36
70851;DHT22;58475;49.662;9.636;2022-09-29T12:59:57;12.64;68.20
70851;DHT22;58475;49.662;9.636;2022-09-29T13:25:03;11.63;70.49
70851;DHT22;58475;49.662;9.636;2022-09-29T13:27:35;11.67;72.14
70851;DHT22;58475;49.662;9.636;2022-09-29T13:32:30;11.90;69.83
70851;DHT22;58475;49.662;9.636;2022-09-29T13:34:59;12.08;67.38
70851;DHT22;58475;49.662;9.636;2022-09-29T13:37:32;12.02;69.76
70851;DHT22;58475;49.662;9.636;2022-09-29T13:40:01;12.25;69.23
70851;DHT22;58475;49.662;9.636;2022-09-29T13:42:44;12.50;66.02
70851;DHT22;58475;49.662;9.636;2022-09-29T13:47:50;13.00;68.53
70851;DHT22;58475;49.662;9.636;2022-09-29T13:53:33;13.21;73.73
70851;DHT22;58475;49.662;9.636;2022-09-29T14:01:09;12.97;74.61
70851;DHT22;58475;49.662;9.636;2022-09-29T14:03:40;12.87;74.38
70851;DHT22;58475;49.662;9.636;2022-09-29T14:11:39;12.94;74.00
70851;DHT22;58475;49.662;9.636;2022-09-29T14:14:18;12.97;70.88
70851;DHT22;58475;49.662;9.636;2022-09-29T14:17:00;13.04;73.72
70851;DHT22;58475;49.662;9.636;2022-09-29T14:19:49;13.11;74.44
70851;DHT22;58475;49.662;9.636;2022-09-29T14:38:31;12.72;73.14
70851;DHT22;58475;49.662;9.636;2022-09-29T14:40:59;12.75;71.23
70851;DHT22;58475;49.662;9.636;2022-09-29T14:55:13;12.63;75.11
70851;DHT22;58475;49.662;9.636;2022-09-29T15:03:23;12.80;77.52
70851;DHT22;58475;49.662;9.636;2022-09-29T15:06:04;12.81;78.72
70851;DHT22;58475;49.662;9.636;2022-09-29T15:08:31;12.67;77.65
70851;DHT22;58475;49.662;9.636;2022-09-29T15:10:58;12.62;78.23
70851;DHT22;58475;49.662;9.636;2022-09-29T15:13:28;12.59;77.90
70851;DHT22;58475;49.662;9.636;2022-09-29T15:27:05;12.46;76.68
70851;DHT22;58475;49.662;9.636;2022-09-29T15:29:36;12.43;78.71
70851;DHT22;58475;49.662;9.636;2022-09-29T15:32:03;12.52;78.11
70851;DHT22;58475;49.662;9.636;2022-09-29T15:34:30;12.48;80.51
70851;DHT22;58475;49.662;9.636;2022-09-29T15:36:58;12.50;80.21
70851;DHT22;58475;49.662;9.636;2022-09-29T15:39:40;12.50;80.61
70851;DHT22;58475;49.662;9.636;2022-09-29T15:42:22;12.48;81.65
70851;DHT22;58475;49.662;9.636;2022-09-29T15:45:00;12.60;81.20
70851;DHT22;58475;49.662;9.636;2022-09-29T15:47:28;12.49;80.67
70851;DHT22;58475;49.662;9.636;2022-09-29T15:50:03;12.49;81.24
70851;DHT22;58475;49.662;9.636;2022-09-29T15:52:29;12.46;81.28
70851;DHT22;58475;49.662;9.636;2022-09-29T15:54:56;12.49;82.84
70851;DHT22;58475;49.662;9.636;2022-09-29T15:57:42;12.49;81.97
70851;DHT22;58475;49.662;9.636;2022-09-29T16:05:37;12.31;83.66
70851;DHT22;58475;49.662;9.636;2022-09-29T16:08:21;12.18;81.43
70851;DHT22;58475;49.662;9.636;2022-09-29T16:10:57;12.17;80.92
70851;DHT22;58475;49.662;9.636;2022-09-29T16:13:26;12.14;80.85
70851;DHT22;58475;49.662;9.636;2022-09-29T16:16:01;12.14;80.58
70851;DHT22;58475;49.662;9.636;2022-09-29T16:20:57;12.05;81.55
70851;DHT22;58475;49.662;9.636;2022-09-29T16:31:41;11.53;80.36
70851;DHT22;58475;49.662;9.636;2022-09-29T16:39:19;11.51;82.62
70851;DHT22;58475;49.662;9.636;2022-09-29T16:41:53;11.53;84.21
70851;DHT22;58475;49.662;9.636;2022-09-29T16:44:21;11.40;83.03
70851;DHT22;58475;49.662;9.636;2022-09-29T16:49:21;11.33;83.45
70851;DHT22;58475;49.662;9.636;2022-09-29T16:51:48;11.08;83.50
70851;DHT22;58475;49.662;9.636;2022-09-29T16:54:23;10.93;85.21
70851;DHT22;58475;49.662;9.636;2022-09-29T16:57:14;10.76;86.86
70851;DHT22;58475;49.662;9.636;2022-09-29T16:59:41;10.67;86.88
70851;DHT22;58475;49.662;9.636;2022-09-29T17:02:10;10.61;86.93
70851;DHT22;58475;49.662;9.636;2022-09-29T17:04:36;10.50;87.47
70851;DHT22;58475;49.662;9.636;2022-09-29T17:07:01;10.27;88.24
70851;DHT22;58475;49.662;9.636;2022-09-29T17:09:28;10.06;86.89
70851;DHT22;58475;49.662;9.636;2022-09-29T17:11:54;9.94;85.60
70851;DHT22;58475;49.662;9.636;2022-09-29T17:14:20;9.90;85.91
70851;DHT22;58475;49.662;9.636;2022-09-29T17:16:47;9.93;86.66
70851;DHT22;58475;49.662;9.636;2022-09-29T17:19:14;9.93;85.41
70851;DHT22;58475;49.662;9.636;2022-09-29T17:21:41;9.83;85.98
70851;DHT22;58475;49.662;9.636;2022-09-29T17:24:06;9.75;86.18
70851;DHT22;58475;49.662;9.636;2022-09-29T17:26:43;9.59;87.12
70851;DHT22;58475;49.662;9.636;2022-09-29T17:29:28;9.39;87.21
70851;DHT22;58475;49.662;9.636;2022-09-29T17:31:53;9.20;87.82
70851;DHT22;58475;49.662;9.636;2022-09-29T17:34:19;9.24;88.00
70851;DHT22;58475;49.662;9.636;2022-09-29T17:36:54;9.28;87.74
70851;DHT22;58475;49.662;9.636;2022-09-29T17:39:20;9.18;88.36
70851;DHT22;58475;49.662;9.636;2022-09-29T17:41:46;9.10;88.54
70851;DHT22;58475;49.662;9.636;2022-09-29T17:44:14;9.00;88.77
70851;DHT22;58475;49.662;9.636;2022-09-29T17:46:39;8.91;89.68
70851;DHT22;58475;49.662;9.636;2022-09-29T17:49:10;8.96;90.33
70851;DHT22;58475;49.662;9.636;2022-09-29T17:51:36;8.74;91.30
70851;DHT22;58475;49.662;9.636;2022-09-29T17:54:01;8.67;90.20
70851;DHT22;58475;49.662;9.636;2022-09-29T17:56:27;8.79;89.77
70851;DHT22;58475;49.662;9.636;2022-09-29T17:58:57;8.72;89.96
70851;DHT22;58475;49.662;9.636;2022-09-29T18:01:27;8.73;89.94
70851;DHT22;58475;49.662;9.636;2022-09-29T18:03:54;8.38;91.66
70851;DHT22;58475;49.662;9.636;2022-09-29T18:06:21;8.45;91.14
70851;DHT22;58475;49.662;9.636;2022-09-29T18:08:50;8.57;90.72
70851;DHT22;58475;49.662;9.636;2022-09-29T18:11:22;8.62;89.92
70851;DHT22;58475;49.662;9.636;2022-09-29T18:13:48;8.31;91.21
70851;DHT22;58475;49.662;9.636;2022-09-29T18:16:19;8.14;92.05
70851;DHT22;58475;49.662;9.636;2022-09-29T18:18:45;8.20;92.14
70851;DHT22;58475;49.662;9.636;2022-09-29T18:21:11;8.12;92.00
70851;DHT22;58475;49.662;9.636;2022-09-29T18:23:38;8.08;92.36
70851;DHT22;58475;49.662;9.636;2022-09-29T18:26:05;8.01;92.74
70851;DHT22;58475;49.662;9.636;2022-09-29T18:28:31;8.02;92.17
70851;DHT22;58475;49.662;9.636;2022-09-29T18:31:02;7.97;92.99
70851;DHT22;58475;49.662;9.636;2022-09-29T18:33:31;7.97;92.96
70851;DHT22;58475;49.662;9.636;2022-09-29T18:35:57;8.06;92.59
70851;DHT22;58475;49.662;9.636;2022-09-29T18:38:25;8.04;92.25
70851;DHT22;58475;49.662;9.636;2022-09-29T18:40:51;7.99;92.07
70851;DHT22;58475;49.662;9.636;2022-09-29T18:43:18;7.88;91.84
70851;DHT22;58475;49.662;9.636;2022-09-29T18:45:45;7.91;92.02
70851;DHT22;58475;49.662;9.636;2022-09-29T18:48:14;7.78;92.15
70851;DHT22;58475;49.662;9.636;2022-09-29T18:50:42;7.63;92.61
70851;DHT22;58475;49.662;9.636;2022-09-29T18:53:09;7.64;92.21
70851;DHT22;58475;49.662;9.636;2022-09-29T18:55:35;7.50;92.15
70851;DHT22;58475;49.662;9.636;2022-09-29T18:58:00;7.50;92.29
70851;DHT22;58475;49.662;9.636;2022-09-29T19:00:29;7.46;92.31
70851;DHT22;58475;49.662;9.636;2022-09-29T19:02:56;7.57;92.34
70851;DHT22;58475;49.662;9.636;2022-09-29T19:05:25;7.49;92.39
70851;DHT22;58475;49.662;9.636;2022-09-29T19:07:57;7.60;92.73
70851;DHT22;58475;49.662;9.636;2022-09-29T19:10:23;7.49;92.58
70851;DHT22;58475;49.662;9.636;2022-09-29T19:12:48;7.49;92.42
70851;DHT22;58475;49.662;9.636;2022-09-29T19:15:19;7.40;92.21
70851;DHT22;58475;49.662;9.636;2022-09-29T19:17:47;7.46;91.39
70851;DHT22;58475;49.662;9.636;2022-09-29T19:20:14;7.36;92.17
70851;DHT22;58475;49.662;9.636;2022-09-29T19:22:40;7.39;92.19
70851;DHT22;58475;49.662;9.636;2022-09-29T19:25:15;7.29;91.92
70851;DHT22;58475;49.662;9.636;2022-09-29T19:27:42;7.15;91.92
70851;DHT22;58475;49.662;9.636;2022-09-29T19:30:10;6.96;92.69
70851;DHT22;58475;49.662;9.636;2022-09-29T19:32:36;7.01;92.69
70851;DHT22;58475;49.662;9.636;2022-09-29T19:35:02;6.88;92.76
70851;DHT22;58475;49.662;9.636;2022-09-29T19:37:27;6.96;92.69
70851;DHT22;58475;49.662;9.636;2022-09-29T19:39:54;6.96;92.89